createdAt,value
2023-02-16T00:02:01.877Z,56.96
2023-02-16T00:04:31.667Z,57.01
2023-02-16T00:07:01.347Z,57.04
2023-02-16T00:09:29.672Z,58.35
2023-02-16T00:12:12.923Z,57.96
2023-02-16T00:14:41.652Z,57.88
2023-02-16T00:17:12.889Z,57.68
2023-02-16T00:19:43.092Z,57.46
2023-02-16T00:22:12.776Z,57.18
2023-02-16T00:24:41.132Z,58.44
2023-02-16T00:27:18.611Z,58.15
2023-02-16T00:29:46.933Z,57.64
2023-02-16T00:32:15.824Z,57.36
2023-02-16T00:34:44.932Z,57.66
2023-02-16T00:37:15.477Z,57.61
2023-02-16T00:39:45.199Z,58.12
2023-02-16T00:42:18.361Z,59.91
2023-02-16T00:44:48.489Z,59.06
2023-02-16T00:47:21.227Z,59.58
2023-02-16T00:49:50.670Z,58.71
2023-02-16T00:52:36.194Z,58.25
2023-02-16T00:55:08.103Z,58.30
2023-02-16T00:57:40.293Z,58.02
2023-02-16T01:00:15.150Z,58.51
2023-02-16T01:02:43.978Z,58.25
2023-02-16T01:05:13.241Z,57.92
2023-02-16T01:08:03.440Z,57.96
2023-02-16T01:10:49.170Z,57.76
2023-02-16T01:13:18.606Z,58.09
2023-02-16T01:15:47.198Z,58.43
2023-02-16T01:18:16.840Z,58.71
2023-02-16T01:20:45.897Z,58.68
2023-02-16T01:23:15.853Z,58.47
2023-02-16T01:25:44.256Z,59.33
2023-02-16T01:28:20.653Z,59.41
2023-02-16T01:30:49.131Z,59.04
2023-02-16T01:33:17.474Z,58.77
2023-02-16T01:35:46.478Z,58.93
2023-02-16T01:38:19.682Z,59.29
2023-02-16T01:40:55.249Z,59.31
2023-02-16T01:43:28.455Z,58.99
2023-02-16T01:46:02.829Z,59.20
2023-02-16T01:48:32.825Z,58.88
2023-02-16T01:51:08.460Z,58.85
2023-02-16T01:53:42.623Z,58.76
2023-02-16T01:56:21.432Z,59.84
2023-02-16T01:58:53.665Z,60.65
2023-02-16T02:01:49.660Z,58.75
2023-02-16T02:04:42.131Z,59.76
2023-02-16T02:07:20.649Z,58.30
2023-02-16T02:09:59.012Z,58.65
2023-02-16T02:12:34.092Z,60.78
2023-02-16T02:15:02.377Z,58.80
2023-02-16T02:17:30.702Z,58.97
2023-02-16T02:20:09.872Z,58.48
2023-02-16T02:23:31.582Z,59.47
2023-02-16T02:26:35.188Z,59.19
2023-02-16T02:29:17.330Z,58.64
2023-02-16T02:31:57.200Z,59.08
2023-02-16T02:34:35.344Z,60.45
2023-02-16T02:37:12.186Z,61.85
2023-02-16T02:39:52.837Z,60.62
2023-02-16T02:42:26.920Z,60.10
2023-02-16T02:45:00.527Z,59.91
2023-02-16T02:47:39.821Z,60.95
2023-02-16T02:50:38.591Z,60.27
2023-02-16T02:53:12.130Z,63.12
2023-02-16T02:56:02.556Z,62.38
2023-02-16T02:58:54.548Z,63.21
2023-02-16T03:01:25.554Z,63.32
2023-02-16T03:03:56.706Z,64.89
2023-02-16T03:06:28.917Z,64.39
2023-02-16T03:09:03.730Z,63.90
2023-02-16T03:11:49.677Z,63.25
2023-02-16T03:14:21.679Z,63.64
2023-02-16T03:17:13.300Z,64.20
2023-02-16T03:20:01.222Z,66.31
2023-02-16T03:22:48.144Z,66.80
2023-02-16T03:25:34.714Z,64.23
2023-02-16T03:28:23.699Z,63.72
2023-02-16T03:30:54.156Z,64.97
2023-02-16T03:33:25.130Z,63.90
2023-02-16T03:35:54.777Z,64.68
2023-02-16T03:38:25.974Z,63.72
2023-02-16T03:40:54.520Z,63.33
2023-02-16T03:43:26.294Z,62.96
2023-02-16T03:45:54.800Z,62.43
2023-02-16T03:48:24.590Z,62.30
2023-02-16T03:50:53.003Z,61.76
2023-02-16T03:53:21.266Z,61.63
2023-02-16T03:55:51.837Z,61.35
2023-02-16T03:58:22.040Z,61.06
2023-02-16T04:00:50.678Z,60.79
2023-02-16T04:03:19.162Z,60.66
2023-02-16T04:05:48.842Z,60.51
2023-02-16T04:08:17.208Z,60.90
2023-02-16T04:10:45.878Z,60.65
2023-02-16T04:13:13.171Z,61.15
2023-02-16T04:15:42.489Z,61.43
2023-02-16T04:18:10.933Z,60.77
2023-02-16T04:20:39.315Z,61.58
2023-02-16T04:23:09.297Z,60.44
2023-02-16T04:25:37.665Z,62.09
2023-02-16T04:28:05.873Z,61.69
2023-02-16T04:30:34.279Z,62.13
2023-02-16T04:33:02.684Z,60.81
2023-02-16T04:35:31.028Z,60.91
2023-02-16T04:37:59.313Z,61.58
2023-02-16T04:40:29.018Z,62.23
2023-02-16T04:42:57.271Z,62.45
2023-02-16T04:45:25.586Z,63.12
2023-02-16T04:47:55.578Z,63.74
2023-02-16T04:50:25.690Z,63.46
2023-02-16T04:52:56.622Z,64.47
2023-02-16T04:55:25.741Z,63.77
2023-02-16T04:57:55.412Z,63.41
2023-02-16T05:00:26.471Z,63.96
2023-02-16T05:02:54.853Z,63.71
2023-02-16T05:05:23.167Z,64.63
2023-02-16T05:07:51.431Z,64.30
2023-02-16T05:10:19.877Z,64.87
2023-02-16T05:13:05.646Z,64.76
2023-02-16T05:15:35.420Z,64.85
2023-02-16T05:18:06.044Z,65.48
2023-02-16T05:20:51.674Z,65.39
2023-02-16T05:23:20.074Z,65.30
2023-02-16T05:25:48.372Z,65.85
2023-02-16T05:28:16.796Z,65.68
2023-02-16T05:30:46.522Z,65.60
2023-02-16T05:33:14.953Z,65.73
2023-02-16T05:35:43.277Z,66.01
2023-02-16T05:38:14.391Z,66.28
2023-02-16T05:40:45.868Z,67.49
2023-02-16T05:43:14.063Z,67.46
2023-02-16T05:45:42.276Z,67.90
2023-02-16T05:48:12.010Z,67.76
2023-02-16T05:50:40.286Z,69.07
2023-02-16T05:53:08.574Z,69.41
2023-02-16T05:55:39.874Z,68.41
2023-02-16T05:58:08.237Z,67.35
2023-02-16T06:00:36.769Z,65.50
2023-02-16T06:03:05.227Z,64.47
2023-02-16T06:05:35.370Z,64.89
2023-02-16T06:08:04.301Z,64.13
2023-02-16T06:10:32.522Z,62.52
2023-02-16T06:13:00.800Z,63.43
2023-02-16T06:15:29.367Z,63.52
2023-02-16T06:17:57.756Z,62.27
2023-02-16T06:20:28.698Z,62.28
2023-02-16T06:22:58.365Z,61.35
2023-02-16T06:25:26.725Z,61.50
2023-02-16T06:27:57.038Z,61.94
2023-02-16T06:30:28.298Z,62.01
2023-02-16T06:32:56.558Z,61.38
2023-02-16T06:35:24.866Z,60.27
2023-02-16T06:37:54.459Z,59.09
2023-02-16T06:40:25.898Z,58.62
2023-02-16T06:42:56.793Z,58.33
2023-02-16T06:45:25.059Z,57.12
2023-02-16T06:47:53.496Z,55.76
2023-02-16T06:50:21.798Z,54.49
2023-02-16T06:52:49.988Z,54.52
2023-02-16T06:55:18.457Z,54.83
2023-02-16T06:57:48.120Z,54.97
2023-02-16T07:00:17.963Z,54.97
2023-02-16T07:02:46.931Z,53.91
2023-02-16T07:05:15.726Z,52.88
2023-02-16T07:07:43.958Z,52.87
2023-02-16T07:10:12.592Z,51.31
2023-02-16T07:12:40.845Z,51.37
2023-02-16T07:15:11.178Z,49.80
2023-02-16T07:17:39.798Z,49.41
2023-02-16T07:20:09.332Z,48.79
2023-02-16T07:22:37.678Z,48.92
2023-02-16T07:25:06.312Z,49.29
2023-02-16T07:27:34.682Z,49.75
2023-02-16T07:30:02.965Z,49.26
2023-02-16T07:32:32.971Z,49.14
2023-02-16T07:35:01.227Z,49.15
2023-02-16T07:37:29.505Z,48.01
2023-02-16T07:39:57.858Z,47.51
2023-02-16T07:42:26.167Z,48.00
2023-02-16T07:44:54.454Z,47.70
2023-02-16T07:47:22.785Z,46.33
2023-02-16T07:49:52.903Z,45.65
2023-02-16T07:52:21.189Z,46.59
2023-02-16T07:54:49.580Z,44.14
2023-02-16T07:57:17.928Z,42.51
2023-02-16T07:59:46.309Z,41.70
2023-02-16T08:02:18.356Z,42.31
2023-02-16T08:04:46.759Z,41.82
2023-02-16T08:07:17.826Z,43.11
2023-02-16T08:09:46.318Z,41.87
2023-02-16T08:12:16.022Z,42.66
2023-02-16T08:14:44.995Z,42.05
2023-02-16T08:17:13.676Z,41.58
2023-02-16T08:19:42.249Z,40.76
2023-02-16T08:22:12.340Z,40.65
2023-02-16T08:24:42.110Z,38.79
2023-02-16T08:27:11.010Z,37.95
2023-02-16T08:29:39.258Z,36.94
2023-02-16T08:32:08.194Z,37.93
2023-02-16T08:34:36.884Z,38.67
2023-02-16T08:37:05.138Z,38.20
2023-02-16T08:39:35.285Z,36.77
2023-02-16T08:42:06.896Z,36.27
2023-02-16T08:44:35.276Z,37.31
2023-02-16T08:47:03.879Z,37.65
2023-02-16T08:49:33.204Z,37.68
2023-02-16T08:52:02.049Z,37.68
2023-02-16T08:54:33.562Z,37.59
2023-02-16T08:57:03.161Z,36.88
2023-02-16T08:59:33.457Z,37.39
2023-02-16T09:02:02.302Z,35.71
2023-02-16T09:04:31.326Z,37.38
2023-02-16T09:06:59.774Z,37.66
2023-02-16T09:09:28.822Z,36.82
2023-02-16T09:11:59.421Z,36.81
2023-02-16T09:14:28.109Z,35.92
2023-02-16T09:16:58.192Z,35.97
2023-02-16T09:19:26.589Z,36.16
2023-02-16T09:21:56.446Z,35.62
2023-02-16T09:24:25.409Z,34.83
2023-02-16T09:26:53.732Z,34.30
2023-02-16T09:29:22.306Z,33.79
2023-02-16T09:31:50.607Z,35.02
2023-02-16T09:34:22.820Z,34.32
2023-02-16T09:36:52.893Z,34.48
2023-02-16T09:39:21.688Z,34.27
2023-02-16T09:42:03.582Z,33.71
2023-02-16T09:44:43.485Z,33.59
2023-02-16T09:47:20.774Z,32.63
2023-02-16T09:49:51.349Z,32.52
2023-02-16T09:52:26.386Z,31.06
2023-02-16T09:54:57.764Z,31.70
2023-02-16T09:57:42.108Z,31.48
2023-02-16T10:00:22.351Z,30.17
2023-02-16T10:02:57.625Z,29.80
2023-02-16T10:05:32.662Z,30.44
2023-02-16T10:08:07.817Z,29.29
2023-02-16T10:10:42.032Z,29.50
2023-02-16T10:13:19.275Z,29.39
2023-02-16T10:15:54.003Z,29.95
2023-02-16T10:18:27.938Z,28.90
2023-02-16T10:21:02.557Z,28.26
2023-02-16T10:23:47.624Z,28.90
2023-02-16T10:26:21.541Z,27.75
2023-02-16T10:28:55.117Z,29.37
2023-02-16T10:31:33.668Z,30.59
2023-02-16T10:34:18.288Z,30.50
2023-02-16T10:37:04.116Z,29.97
2023-02-16T10:39:40.440Z,28.98
2023-02-16T10:42:19.160Z,29.05
2023-02-16T10:44:52.508Z,28.92
2023-02-16T10:47:33.473Z,28.33
2023-02-16T10:50:01.975Z,28.64
2023-02-16T10:52:35.744Z,28.55
2023-02-16T10:55:04.033Z,27.63
2023-02-16T10:57:34.065Z,27.60
2023-02-16T11:00:08.243Z,28.20
2023-02-16T11:02:39.343Z,26.81
2023-02-16T11:05:33.459Z,27.73
2023-02-16T11:08:03.952Z,28.08
2023-02-16T11:10:46.426Z,27.66
2023-02-16T11:13:31.577Z,25.85
2023-02-16T11:16:07.104Z,26.54
2023-02-16T11:18:38.508Z,26.88
2023-02-16T11:21:08.734Z,26.12
2023-02-16T11:23:40.630Z,25.83
2023-02-16T11:26:24.276Z,25.71
2023-02-16T11:28:52.800Z,26.69
2023-02-16T11:31:27.157Z,25.06
2023-02-16T11:34:02.935Z,25.23
2023-02-16T11:36:37.745Z,25.18
2023-02-16T11:39:16.007Z,26.18
2023-02-16T11:41:47.274Z,26.44
2023-02-16T11:44:27.481Z,26.99
2023-02-16T11:46:57.808Z,26.78
2023-02-16T11:49:34.524Z,27.84
2023-02-16T11:52:21.129Z,26.10
2023-02-16T11:54:57.684Z,25.99
2023-02-16T11:57:28.718Z,26.71
2023-02-16T11:59:58.459Z,27.51
2023-02-16T12:02:46.560Z,27.12
2023-02-16T12:05:27.226Z,24.24
2023-02-16T12:08:11.191Z,25.17
2023-02-16T12:10:52.808Z,25.33
2023-02-16T12:13:28.802Z,24.95
2023-02-16T12:16:04.677Z,25.56
2023-02-16T12:18:44.132Z,25.49
2023-02-16T12:21:21.160Z,25.63
2023-02-16T12:24:01.829Z,25.33
2023-02-16T12:26:49.011Z,25.12
2023-02-16T12:29:29.754Z,25.86
2023-02-16T12:32:13.898Z,26.07
2023-02-16T12:34:57.660Z,27.16
2023-02-16T12:37:35.290Z,26.93
2023-02-16T12:40:13.797Z,26.67
2023-02-16T12:42:57.690Z,26.02
2023-02-16T12:45:32.546Z,26.32
2023-02-16T12:48:27.512Z,26.26
2023-02-16T12:50:57.979Z,26.71
2023-02-16T12:53:30.486Z,26.04
2023-02-16T12:56:03.644Z,26.57
2023-02-16T12:58:37.629Z,26.66
2023-02-16T13:01:12.343Z,26.89
2023-02-16T13:03:46.547Z,26.57
2023-02-16T13:06:26.722Z,26.74
2023-02-16T13:09:03.755Z,26.46
2023-02-16T13:11:36.086Z,26.88
2023-02-16T13:14:13.096Z,26.50
2023-02-16T13:16:46.490Z,26.78
2023-02-16T13:19:16.613Z,26.55
2023-02-16T13:22:13.019Z,26.19
2023-02-16T13:24:52.941Z,26.23
2023-02-16T13:27:33.986Z,26.90
2023-02-16T13:30:23.043Z,25.88
2023-02-16T13:33:10.016Z,26.95
2023-02-16T13:36:11.247Z,26.90
2023-02-16T13:39:12.830Z,26.70
2023-02-16T13:42:12.019Z,27.98
2023-02-16T13:44:44.833Z,27.11
2023-02-16T13:47:18.360Z,27.73
2023-02-16T13:49:48.271Z,27.73
2023-02-16T13:52:31.220Z,27.87
2023-02-16T13:55:01.655Z,27.15
2023-02-16T13:58:01.808Z,26.76
2023-02-16T14:00:33.930Z,26.75
2023-02-16T14:03:09.328Z,27.07
2023-02-16T14:05:41.144Z,27.84
2023-02-16T14:08:24.483Z,26.35
2023-02-16T14:11:14.068Z,26.03
2023-02-16T14:13:49.067Z,25.26
2023-02-16T14:16:33.116Z,27.49
2023-02-16T14:19:05.945Z,27.67
2023-02-16T14:21:40.093Z,28.91
2023-02-16T14:24:14.497Z,28.34
2023-02-16T14:27:02.388Z,27.95
2023-02-16T14:29:36.364Z,27.41
2023-02-16T14:32:15.479Z,28.15
2023-02-16T14:34:56.130Z,28.00
2023-02-16T14:37:37.591Z,28.41
2023-02-16T14:40:18.848Z,28.11
2023-02-16T14:42:54.713Z,27.98
2023-02-16T14:45:44.527Z,28.50
2023-02-16T14:48:28.197Z,28.93
2023-02-16T14:51:18.541Z,30.12
2023-02-16T14:54:17.818Z,30.08
2023-02-16T14:56:50.957Z,31.32
2023-02-16T14:59:31.734Z,32.38
2023-02-16T15:02:00.517Z,33.26
2023-02-16T15:04:30.402Z,32.76
2023-02-16T15:07:03.904Z,34.05
2023-02-16T15:09:34.592Z,35.14
2023-02-16T15:12:24.592Z,36.19
2023-02-16T15:14:56.889Z,38.52
2023-02-16T15:17:35.800Z,38.83
2023-02-16T15:20:10.775Z,39.85
2023-02-16T15:22:44.804Z,41.14
2023-02-16T15:25:24.402Z,42.27
2023-02-16T15:27:59.232Z,42.55
2023-02-16T15:30:30.698Z,42.99
2023-02-16T15:33:01.591Z,42.86
2023-02-16T15:35:38.119Z,43.25
2023-02-16T15:38:22.241Z,42.93
2023-02-16T15:40:55.033Z,42.83
2023-02-16T15:43:32.102Z,43.88
2023-02-16T15:46:03.266Z,43.84
2023-02-16T15:48:33.714Z,45.00
2023-02-16T15:51:12.765Z,46.21
2023-02-16T15:53:48.501Z,45.97
2023-02-16T15:56:45.497Z,46.62
2023-02-16T15:59:32.064Z,46.49
2023-02-16T16:02:05.419Z,46.63
2023-02-16T16:04:38.809Z,47.55
2023-02-16T16:07:08.538Z,47.19
2023-02-16T16:09:39.595Z,46.79
2023-02-16T16:12:12.260Z,47.28
2023-02-16T16:14:43.657Z,46.94
2023-02-16T16:17:16.694Z,46.94
2023-02-16T16:19:45.083Z,46.66
2023-02-16T16:22:33.171Z,47.38
2023-02-16T16:25:03.544Z,47.55
2023-02-16T16:27:36.070Z,46.09
2023-02-16T16:30:27.623Z,46.44
2023-02-16T16:33:03.882Z,47.51
2023-02-16T16:35:38.078Z,47.72
2023-02-16T16:38:07.646Z,46.41
2023-02-16T16:40:38.433Z,47.10
2023-02-16T16:43:13.145Z,48.36
2023-02-16T16:45:43.513Z,47.41
2023-02-16T16:48:18.389Z,46.18
2023-02-16T16:50:47.834Z,45.31
2023-02-16T16:53:41.014Z,45.32
2023-02-16T16:56:13.390Z,47.36
2023-02-16T16:58:42.156Z,46.97
2023-02-16T17:01:13.630Z,46.92
2023-02-16T17:03:42.139Z,47.75
2023-02-16T17:06:10.522Z,47.39
2023-02-16T17:08:38.939Z,48.28
2023-02-16T17:11:09.514Z,49.68
2023-02-16T17:13:39.269Z,49.39
2023-02-16T17:16:13.600Z,48.75
2023-02-16T17:18:41.832Z,50.50
2023-02-16T17:21:13.479Z,51.41
2023-02-16T17:23:52.252Z,50.59
2023-02-16T17:26:21.045Z,49.45
2023-02-16T17:28:51.623Z,49.16
2023-02-16T17:31:19.968Z,48.55
2023-02-16T17:33:48.359Z,48.31
2023-02-16T17:36:17.481Z,49.75
2023-02-16T17:38:46.296Z,51.97
2023-02-16T17:41:20.525Z,52.17
2023-02-16T17:43:50.657Z,51.92
2023-02-16T17:46:20.133Z,51.37
2023-02-16T17:48:53.588Z,52.28
2023-02-16T17:51:23.999Z,53.44
2023-02-16T17:53:52.254Z,53.45
2023-02-16T17:56:22.922Z,52.34
2023-02-16T17:58:52.882Z,51.78
2023-02-16T18:01:23.037Z,52.02
2023-02-16T18:03:52.514Z,52.00
2023-02-16T18:06:26.383Z,52.33
2023-02-16T18:08:56.563Z,53.69
2023-02-16T18:11:24.959Z,54.18
2023-02-16T18:13:54.695Z,53.63
2023-02-16T18:16:27.955Z,54.41
2023-02-16T18:18:57.492Z,54.32
2023-02-16T18:21:25.876Z,55.32
2023-02-16T18:23:54.243Z,54.61
2023-02-16T18:26:23.908Z,54.73
2023-02-16T18:28:52.237Z,54.26
2023-02-16T18:31:22.089Z,53.62
2023-02-16T18:33:50.488Z,55.03
2023-02-16T18:36:18.839Z,54.56
2023-02-16T18:38:47.234Z,55.48
2023-02-16T18:41:15.512Z,55.33
2023-02-16T18:43:43.787Z,54.91
2023-02-16T18:46:12.765Z,55.22
2023-02-16T18:48:42.644Z,54.58
2023-02-16T18:51:12.529Z,55.16
2023-02-16T18:53:40.864Z,55.53
2023-02-16T18:56:11.507Z,55.44
2023-02-16T18:58:40.389Z,54.99
2023-02-16T19:01:16.225Z,56.73
2023-02-16T19:03:46.017Z,56.76
2023-02-16T19:06:14.494Z,57.09
2023-02-16T19:08:42.843Z,56.75
2023-02-16T19:11:11.120Z,56.34
2023-02-16T19:13:39.500Z,57.24
2023-02-16T19:16:08.636Z,55.99
2023-02-16T19:18:37.090Z,56.10
2023-02-16T19:21:08.180Z,55.74
2023-02-16T19:23:38.688Z,56.74
2023-02-16T19:26:08.760Z,55.99
2023-02-16T19:28:37.004Z,55.59
2023-02-16T19:31:07.098Z,55.61
2023-02-16T19:33:36.038Z,56.09
2023-02-16T19:36:08.688Z,55.97
2023-02-16T19:38:37.566Z,55.59
2023-02-16T19:41:10.678Z,57.49
2023-02-16T19:43:39.227Z,57.76
2023-02-16T19:46:07.872Z,57.84
2023-02-16T19:48:36.864Z,57.94
2023-02-16T19:51:09.213Z,58.70
2023-02-16T19:53:38.783Z,59.67
2023-02-16T19:56:08.233Z,58.19
2023-02-16T19:58:37.021Z,58.35
2023-02-16T20:01:08.435Z,59.29
2023-02-16T20:03:36.787Z,58.71
2023-02-16T20:06:16.799Z,58.84
2023-02-16T20:08:46.454Z,59.51
2023-02-16T20:11:15.707Z,58.26
2023-02-16T20:13:44.707Z,58.37
2023-02-16T20:16:14.416Z,58.03
2023-02-16T20:18:43.248Z,57.65
2023-02-16T20:21:16.006Z,57.49
2023-02-16T20:23:45.374Z,56.99
2023-02-16T20:26:15.661Z,58.25
2023-02-16T20:28:43.930Z,59.26
2023-02-16T20:31:14.811Z,59.39
2023-02-16T20:33:43.426Z,59.03
2023-02-16T20:36:12.528Z,60.31
2023-02-16T20:38:44.980Z,58.35
2023-02-16T20:41:16.357Z,58.43
2023-02-16T20:43:44.753Z,58.71
2023-02-16T20:46:15.083Z,59.27
2023-02-16T20:48:43.599Z,57.90
2023-02-16T20:51:14.185Z,58.14
2023-02-16T20:53:44.277Z,58.65
2023-02-16T20:56:15.610Z,58.47
2023-02-16T20:58:45.926Z,58.53
2023-02-16T21:01:15.795Z,57.99
2023-02-16T21:03:44.822Z,58.24
2023-02-16T21:06:13.158Z,58.09
2023-02-16T21:08:41.424Z,58.25
2023-02-16T21:11:11.358Z,58.49
2023-02-16T21:13:40.700Z,58.46
2023-02-16T21:16:10.077Z,57.94
2023-02-16T21:18:40.588Z,58.47
2023-02-16T21:21:09.894Z,58.73
2023-02-16T21:23:38.200Z,59.69
2023-02-16T21:26:07.264Z,59.38
2023-02-16T21:28:37.285Z,59.26
2023-02-16T21:31:09.056Z,59.82
2023-02-16T21:33:40.283Z,62.13
2023-02-16T21:36:10.251Z,60.94
2023-02-16T21:38:39.431Z,60.19
2023-02-16T21:41:28.887Z,59.10
2023-02-16T21:44:02.306Z,58.37
2023-02-16T21:46:33.466Z,57.24
2023-02-16T21:49:01.072Z,57.00
2023-02-16T21:51:31.860Z,57.25
2023-02-16T21:54:00.681Z,56.40
2023-02-16T21:56:35.305Z,56.34
2023-02-16T21:59:06.576Z,57.26
2023-02-16T22:01:37.042Z,57.12
2023-02-16T22:04:06.357Z,57.71
2023-02-16T22:06:36.873Z,57.53
2023-02-16T22:09:07.553Z,58.15
2023-02-16T22:11:35.861Z,58.77
2023-02-16T22:14:06.060Z,58.85
2023-02-16T22:16:36.944Z,58.37
2023-02-16T22:19:08.895Z,57.25
2023-02-16T22:21:38.498Z,57.21
2023-02-16T22:24:07.616Z,56.83
2023-02-16T22:26:37.146Z,56.51
2023-02-16T22:29:11.532Z,56.88
2023-02-16T22:31:40.083Z,56.83
2023-02-16T22:34:12.986Z,57.22
2023-02-16T22:36:41.318Z,56.83
2023-02-16T22:39:09.753Z,57.54
2023-02-16T22:41:38.107Z,57.64
2023-02-16T22:44:07.766Z,58.28
2023-02-16T22:46:37.165Z,58.95
2023-02-16T22:49:05.418Z,57.93
2023-02-16T22:51:33.648Z,59.45
2023-02-16T22:54:02.974Z,58.88
2023-02-16T22:56:32.057Z,58.18
2023-02-16T22:59:01.388Z,58.22
2023-02-16T23:01:32.470Z,57.09
2023-02-16T23:04:02.680Z,57.48
2023-02-16T23:06:32.970Z,58.00
2023-02-16T23:09:03.124Z,57.55
2023-02-16T23:11:31.725Z,57.59
2023-02-16T23:14:00.209Z,57.70
2023-02-16T23:16:30.595Z,57.64
2023-02-16T23:19:00.579Z,57.66
2023-02-16T23:21:30.787Z,57.63
2023-02-16T23:24:00.330Z,57.34
2023-02-16T23:26:31.299Z,58.12
2023-02-16T23:29:01.543Z,58.89
2023-02-16T23:31:34.497Z,59.94
2023-02-16T23:34:02.936Z,60.19
2023-02-16T23:36:31.385Z,62.02
2023-02-16T23:39:01.462Z,61.93
2023-02-16T23:41:29.868Z,61.93
2023-02-16T23:44:00.657Z,61.85
2023-02-16T23:46:29.360Z,61.92
2023-02-16T23:48:59.077Z,62.23
2023-02-16T23:51:28.041Z,62.58
2023-02-16T23:53:57.747Z,62.33
2023-02-16T23:56:28.310Z,62.45
2023-02-16T23:58:59.209Z,62.70
